Time;durP1;ratioP1;P1;durP2;ratioP2;P2;SDS_P1;SDS_P2;PMS_P1;PMS_P2;Temp;Humidity;BMP_temperature;BMP_pressure;BME280_temperature;BME280_humidity;BME280_pressure;Samples;Min_cycle;Max_cycle;Signal;HPM_P1;HPM_P2
2023/05/06 00:00:32;;;;;;;10.60;7.97;;;;;;;10.78;57.78;93979.13;4975601;28;20034;-79
2023/05/06 00:02:59;;;;;;;9.82;8.05;;;;;;;10.69;58.46;93981.78;4973783;28;20042;-80
2023/05/06 00:05:25;;;;;;;9.23;7.57;;;;;;;10.61;58.60;93961.28;4971669;28;20034;-80
2023/05/06 00:07:51;;;;;;;10.55;7.03;;;;;;;10.46;59.22;93956.38;4972713;28;20038;-80
2023/05/06 00:10:16;;;;;;;7.47;6.78;;;;;;;10.71;58.53;93979.56;4971758;28;20478;-79
2023/05/06 00:12:42;;;;;;;9.00;6.80;;;;;;;10.58;58.50;93959.22;4971807;28;20446;-79
2023/05/06 00:15:07;;;;;;;10.10;6.97;;;;;;;10.67;58.14;93968.00;4974241;28;20057;-80
2023/05/06 00:17:33;;;;;;;7.57;6.70;;;;;;;10.69;58.20;93982.56;4972893;28;20022;-79
2023/05/06 00:19:58;;;;;;;8.20;6.57;;;;;;;10.66;58.02;93977.84;4977040;28;20022;-79
2023/05/06 00:22:24;;;;;;;8.80;6.82;;;;;;;10.72;58.39;93989.13;4978452;28;20494;-80
2023/05/06 00:24:49;;;;;;;8.25;6.45;;;;;;;10.58;58.34;93975.94;4976146;28;20327;-79
2023/05/06 00:27:15;;;;;;;7.95;6.68;;;;;;;10.77;58.45;93980.22;4975874;28;20658;-81
2023/05/06 00:29:40;;;;;;;12.52;6.55;;;;;;;10.65;58.44;93976.31;4985153;28;20109;-79
2023/05/06 00:32:06;;;;;;;8.23;6.43;;;;;;;10.76;58.52;93984.75;4975599;28;20358;-80
2023/05/06 00:34:31;;;;;;;11.02;7.18;;;;;;;10.56;58.68;93961.41;4976102;28;20528;-78
2023/05/06 00:36:56;;;;;;;9.05;6.55;;;;;;;10.47;59.28;93965.91;4974478;28;20173;-80
2023/05/06 00:39:23;;;;;;;13.43;7.10;;;;;;;10.65;59.18;93986.16;4971776;28;20042;-79
2023/05/06 00:41:49;;;;;;;9.52;7.05;;;;;;;10.59;58.71;93972.22;4975418;28;20041;-79
2023/05/06 00:44:14;;;;;;;7.93;6.43;;;;;;;10.75;58.45;93980.56;4976151;28;20038;-79
2023/05/06 00:46:41;;;;;;;7.85;6.55;;;;;;;10.74;58.17;93973.66;4974414;28;20048;-80
2023/05/06 00:49:07;;;;;;;8.95;7.53;;;;;;;10.70;58.32;93973.50;4973402;28;20045;-81
2023/05/06 00:51:32;;;;;;;9.68;6.65;;;;;;;10.61;58.08;93959.38;4974216;28;20889;-78
2023/05/06 00:53:58;;;;;;;8.05;6.82;;;;;;;10.54;58.49;93959.06;4973760;28;20046;-79
2023/05/06 00:56:24;;;;;;;9.48;7.07;;;;;;;10.66;58.36;93977.84;4972995;28;20034;-79
2023/05/06 00:58:49;;;;;;;8.07;6.80;;;;;;;10.62;58.37;93965.47;4971847;28;20635;-79
2023/05/06 01:01:16;;;;;;;8.93;6.60;;;;;;;10.61;58.57;93979.88;4976716;28;20563;-78
2023/05/06 01:03:41;;;;;;;9.52;7.53;;;;;;;10.62;58.34;93962.81;4973927;28;20049;-80
2023/05/06 01:06:36;;;;;;;10.25;7.35;;;;;;;10.71;58.44;93968.94;4975094;28;20144;-80
2023/05/06 01:09:20;;;;;;;6.87;5.70;;;;;;;10.65;58.29;93972.84;4976107;28;20046;-80
2023/05/06 01:11:51;;;;;;;337.15;26.10;;;;;;;10.58;58.60;93975.16;4977916;28;20401;-79
2023/05/06 01:14:38;;;;;;;8.00;6.50;;;;;;;10.58;58.63;93965.31;4969306;28;20519;-79
2023/05/06 01:17:08;;;;;;;8.45;6.90;;;;;;;10.56;58.38;93956.09;4990362;28;20050;-79
2023/05/06 01:19:47;;;;;;;9.63;7.45;;;;;;;10.29;58.60;93930.47;4977812;28;20037;-80
2023/05/06 01:22:14;;;;;;;10.23;7.22;;;;;;;10.47;58.66;93968.56;4978859;28;20041;-80
2023/05/06 01:24:44;;;;;;;11.52;7.43;;;;;;;10.40;58.91;93961.03;4974598;28;20038;-82
2023/05/06 01:27:11;;;;;;;10.00;7.30;;;;;;;10.52;58.94;93965.75;4977086;28;20039;-78
2023/05/06 01:29:40;;;;;;;10.50;7.57;;;;;;;10.60;58.74;93967.69;4972574;28;20050;-80
2023/05/06 01:32:12;;;;;;;9.02;7.35;;;;;;;10.48;58.84;93965.59;4971785;28;20108;-79
2023/05/06 01:34:52;;;;;;;11.50;7.47;;;;;;;10.54;58.58;93959.06;4973980;28;20117;-81
2023/05/06 01:37:29;;;;;;;8.23;6.85;;;;;;;10.46;58.75;93961.69;4985261;28;20129;-79
2023/05/06 01:39:58;;;;;;;8.85;7.55;;;;;;;10.39;59.04;93967.44;4975537;28;20038;-78
2023/05/06 01:42:25;;;;;;;10.20;7.82;;;;;;;10.24;59.28;93963.28;4976372;28;20022;-80
2023/05/06 01:44:53;;;;;;;9.05;6.70;;;;;;;10.29;59.40;93975.66;4976088;28;20117;-79
2023/05/06 01:47:19;;;;;;;9.50;7.35;;;;;;;10.14;59.88;93960.13;4975725;28;20057;-78
2023/05/06 01:49:46;;;;;;;8.82;7.53;;;;;;;10.26;59.86;93966.44;4975017;28;20501;-78
2023/05/06 01:52:14;;;;;;;8.63;7.30;;;;;;;10.29;59.46;93968.47;4975710;28;20035;-80
2023/05/06 01:54:40;;;;;;;9.48;6.85;;;;;;;10.28;59.63;93966.13;4977801;28;20041;-80
2023/05/06 01:57:05;;;;;;;8.70;6.82;;;;;;;10.03;59.65;93938.34;4975649;28;20034;-79
2023/05/06 01:59:30;;;;;;;8.73;6.90;;;;;;;10.23;59.88;93967.03;4975616;28;20781;-79
2023/05/06 02:01:56;;;;;;;8.98;7.07;;;;;;;10.04;59.94;93937.25;4974978;28;20116;-80
2023/05/06 02:04:21;;;;;;;7.07;6.38;;;;;;;10.08;59.59;93951.50;4973383;28;20042;-81
2023/05/06 02:06:47;;;;;;;8.48;7.28;;;;;;;10.13;59.71;93963.84;4976557;28;20057;-79
2023/05/06 02:09:12;;;;;;;7.70;6.45;;;;;;;10.08;59.59;93951.50;4977556;28;20046;-79
2023/05/06 02:11:37;;;;;;;8.63;6.93;;;;;;;10.12;59.87;93949.78;4976481;28;20428;-80
2023/05/06 02:14:02;;;;;;;10.77;7.55;;;;;;;10.29;59.31;93962.38;4976621;28;20073;-78
2023/05/06 02:16:28;;;;;;;9.70;7.05;;;;;;;10.14;59.68;93949.47;4977736;28;20026;-79
2023/05/06 02:18:56;;;;;;;11.73;7.28;;;;;;;10.31;59.08;93961.00;4976582;28;20110;-75
2023/05/06 02:21:22;;;;;;;9.10;6.70;;;;;;;10.40;58.72;93958.38;4979122;28;20061;-79
2023/05/06 02:23:47;;;;;;;7.57;6.55;;;;;;;10.28;58.79;93948.28;4967981;28;20034;-79
2023/05/06 02:26:12;;;;;;;9.93;7.10;;;;;;;10.15;59.47;93941.22;4977158;28;20037;-81
2023/05/06 02:28:38;;;;;;;7.50;5.85;;;;;;;10.25;58.93;93951.56;4974646;28;20339;-80
2023/05/06 02:31:03;;;;;;;9.95;6.57;;;;;;;10.19;58.92;93942.16;4974950;28;20749;-80
2023/05/06 02:33:29;;;;;;;6.85;6.15;;;;;;;10.31;58.73;93953.00;4973491;28;20038;-79
2023/05/06 02:35:54;;;;;;;7.40;6.47;;;;;;;10.18;58.67;93929.97;4977166;28;20112;-79
2023/05/06 02:38:20;;;;;;;6.90;6.20;;;;;;;10.27;58.84;93959.22;4974431;28;20775;-79
2023/05/06 02:40:45;;;;;;;7.53;6.60;;;;;;;10.25;58.17;93953.44;4973893;28;20027;-79
2023/05/06 02:43:11;;;;;;;8.52;6.57;;;;;;;10.22;57.78;93941.53;4976367;28;20049;-79
2023/05/06 02:45:36;;;;;;;8.70;5.75;;;;;;;10.23;58.04;93964.38;4973596;28;20038;-79
2023/05/06 02:48:02;;;;;;;8.90;6.53;;;;;;;10.17;58.35;93951.56;4975756;28;20030;-81
2023/05/06 02:50:27;;;;;;;7.65;5.50;;;;;;;10.17;58.60;93960.28;4970974;28;20034;-81
2023/05/06 02:52:53;;;;;;;6.95;5.63;;;;;;;10.17;58.36;93960.28;4976129;28;20149;-79
2023/05/06 02:55:18;;;;;;;8.35;5.95;;;;;;;10.10;58.54;93959.16;4972558;28;20129;-81
2023/05/06 02:57:43;;;;;;;8.95;6.53;;;;;;;10.12;59.33;93968.38;4976526;28;20497;-79
2023/05/06 03:00:12;;;;;;;6.80;5.60;;;;;;;10.09;59.45;93962.91;4972605;28;20042;-79
2023/05/06 03:02:38;;;;;;;8.75;6.53;;;;;;;10.15;59.16;93973.09;4972768;28;20100;-78
2023/05/06 03:05:04;;;;;;;15.80;11.63;;;;;;;10.15;59.55;93977.63;4975593;28;20019;-79
2023/05/06 03:07:30;;;;;;;20.52;13.55;;;;;;;10.13;59.75;93963.84;4975210;28;20165;-80
2023/05/06 03:09:55;;;;;;;14.38;10.20;;;;;;;10.12;59.43;93957.75;4989316;28;20156;-79
2023/05/06 03:12:21;;;;;;;10.90;9.02;;;;;;;10.07;59.78;93965.09;4972364;28;20044;-79
2023/05/06 03:14:46;;;;;;;8.63;7.03;;;;;;;10.23;59.69;93975.00;4974405;28;20050;-80
2023/05/06 03:17:11;;;;;;;7.30;6.10;;;;;;;9.87;60.15;93945.16;4975903;28;20037;-81
2023/05/06 03:19:37;;;;;;;6.28;5.35;;;;;;;10.04;60.38;93963.03;4973290;28;20161;-78
2023/05/06 03:22:02;;;;;;;8.68;5.47;;;;;;;10.12;60.19;93965.72;4975020;28;20397;-81
2023/05/06 03:24:29;;;;;;;6.40;5.68;;;;;;;10.21;60.33;93971.91;4975987;28;20394;-79
2023/05/06 03:26:57;;;;;;;7.15;5.85;;;;;;;10.24;60.10;93973.94;4974721;28;20272;-77
2023/05/06 03:29:23;;;;;;;8.05;6.35;;;;;;;10.33;59.97;93993.34;4975486;28;20033;-79
2023/05/06 03:31:49;;;;;;;8.00;6.38;;;;;;;10.31;59.82;93987.56;4973032;28;20022;-79
2023/05/06 03:34:15;;;;;;;8.82;6.20;;;;;;;10.29;59.33;93981.75;4977300;28;20140;-79
2023/05/06 03:36:40;;;;;;;9.80;7.18;;;;;;;10.25;59.62;93991.44;4973493;28;20125;-79
2023/05/06 03:39:06;;;;;;;9.38;6.53;;;;;;;10.23;60.19;93998.94;4975546;28;20046;-81
2023/05/06 03:41:31;;;;;;;7.50;6.22;;;;;;;10.13;60.02;93980.59;4973721;28;20118;-80
2023/05/06 03:43:56;;;;;;;8.68;6.78;;;;;;;10.15;60.26;93981.09;4972941;28;20041;-78
2023/05/06 03:46:22;;;;;;;11.27;7.57;;;;;;;10.24;60.56;93997.84;4975963;28;20128;-79
2023/05/06 03:48:47;;;;;;;8.10;6.10;;;;;;;10.18;60.76;93991.09;4976886;28;20124;-80
2023/05/06 03:51:13;;;;;;;8.77;7.55;;;;;;;10.31;61.01;94003.53;4975271;28;20505;-78
2023/05/06 03:53:38;;;;;;;10.35;6.95;;;;;;;10.29;61.54;93999.59;4974727;28;20150;-79
2023/05/06 03:56:04;;;;;;;9.18;7.28;;;;;;;10.21;61.85;93987.84;4978672;28;20152;-80
2023/05/06 03:58:29;;;;;;;9.75;7.30;;;;;;;10.27;62.23;94002.53;4977850;28;20070;-78
2023/05/06 04:00:54;;;;;;;8.27;6.93;;;;;;;10.23;61.91;93996.28;4979466;28;20042;-78
2023/05/06 04:03:20;;;;;;;8.75;6.65;;;;;;;10.37;62.02;94000.75;4976707;28;20635;-79
2023/05/06 04:05:46;;;;;;;8.93;7.05;;;;;;;10.48;61.94;93999.38;4977696;28;20602;-78
2023/05/06 04:08:11;;;;;;;9.57;6.43;;;;;;;10.58;62.23;94007.09;4979036;28;20054;-78
2023/05/06 04:10:38;;;;;;;7.32;6.07;;;;;;;10.66;62.12;94003.69;4978033;28;20370;-80
2023/05/06 04:13:05;;;;;;;10.45;6.95;;;;;;;10.55;62.23;93991.75;4977091;28;20042;-78
2023/05/06 04:15:33;;;;;;;7.97;6.57;;;;;;;10.59;62.73;94003.34;4992952;28;20612;-79
2023/05/06 04:17:58;;;;;;;12.70;7.47;;;;;;;10.61;62.80;93990.53;4975872;28;20516;-79
2023/05/06 04:20:24;;;;;;;8.30;6.95;;;;;;;10.79;63.09;94016.06;4974604;28;20043;-80
2023/05/06 04:22:49;;;;;;;9.07;7.10;;;;;;;10.72;63.17;93991.78;4993535;28;20033;-78
2023/05/06 04:25:17;;;;;;;8.10;7.03;;;;;;;11.04;63.49;94018.03;4978874;28;20565;-79
2023/05/06 04:27:42;;;;;;;9.77;8.00;;;;;;;11.26;63.71;94022.41;4974762;28;20062;-79
2023/05/06 04:30:08;;;;;;;10.43;7.88;;;;;;;11.31;61.91;94019.59;4977397;28;20510;-77
2023/05/06 04:32:33;;;;;;;10.50;9.02;;;;;;;11.44;61.68;94029.31;4976773;28;20160;-80
2023/05/06 04:34:59;;;;;;;10.02;7.93;;;;;;;11.48;60.72;94026.84;4975925;28;20026;-80
2023/05/06 04:37:27;;;;;;;10.38;8.32;;;;;;;11.45;60.30;93996.28;4977753;28;20113;-78
2023/05/06 04:39:53;;;;;;;12.18;8.52;;;;;;;11.79;59.89;94019.47;4977766;28;20053;-79
2023/05/06 04:42:18;;;;;;;10.00;8.93;;;;;;;11.89;59.35;94029.81;4975473;28;20030;-79
2023/05/06 04:44:44;;;;;;;13.57;8.95;;;;;;;11.92;59.56;94026.53;4977500;28;20042;-82
2023/05/06 04:47:10;;;;;;;11.13;8.63;;;;;;;11.84;60.51;94031.84;4979864;28;20046;-78
2023/05/06 04:49:35;;;;;;;9.13;8.18;;;;;;;11.73;60.62;94001.31;4975817;28;20042;-79
2023/05/06 04:52:00;;;;;;;9.02;8.13;;;;;;;11.96;59.58;94021.34;4972994;28;20072;-79
2023/05/06 04:54:26;;;;;;;11.05;9.43;;;;;;;12.07;59.13;94035.13;4976511;28;20034;-79
2023/05/06 04:56:52;;;;;;;13.18;11.13;;;;;;;12.24;57.95;94035.88;4974458;28;20180;-78
2023/05/06 04:59:18;;;;;;;14.38;12.00;;;;;;;12.08;57.92;94020.72;4980307;28;20029;-81
2023/05/06 05:01:43;;;;;;;12.40;11.15;;;;;;;12.17;57.19;94013.47;4976818;28;20535;-78
2023/05/06 05:04:08;;;;;;;11.00;9.90;;;;;;;12.26;57.64;94048.91;4976052;28;20038;-79
2023/05/06 05:06:34;;;;;;;15.88;9.45;;;;;;;12.37;57.72;94053.56;4977353;28;20600;-82
2023/05/06 05:09:00;;;;;;;11.85;8.60;;;;;;;12.23;58.40;94025.50;4973006;28;20069;-79
2023/05/06 05:11:25;;;;;;;11.05;8.35;;;;;;;12.50;56.70;94038.47;4975835;28;20113;-81
2023/05/06 05:13:50;;;;;;;9.45;8.13;;;;;;;12.16;58.26;94049.22;4976553;28;20101;-79
2023/05/06 05:16:16;;;;;;;9.25;8.35;;;;;;;11.56;58.97;94037.53;4975373;28;20042;-82
2023/05/06 05:18:42;;;;;;;12.95;7.97;;;;;;;12.08;56.76;94061.47;4991407;28;20133;-81
2023/05/06 05:21:07;;;;;;;11.75;8.55;;;;;;;12.27;55.02;94047.81;4975286;28;20084;-79
2023/05/06 05:23:33;;;;;;;9.55;7.97;;;;;;;12.57;55.39;94060.09;4979269;28;20030;-79
2023/05/06 05:25:58;;;;;;;20.80;10.00;;;;;;;12.78;54.00;94038.88;4976132;28;20076;-81
2023/05/06 05:28:24;;;;;;;12.63;9.13;;;;;;;12.81;54.32;94052.34;4970300;28;20034;-79
2023/05/06 05:30:49;;;;;;;10.73;8.30;;;;;;;12.92;53.92;94054.66;4980897;28;20560;-81
2023/05/06 05:33:15;;;;;;;11.57;8.05;;;;;;;12.77;53.11;94058.63;4976658;28;20053;-81
2023/05/06 05:35:40;;;;;;;11.88;8.55;;;;;;;12.33;56.08;94065.97;4973890;28;20034;-79
2023/05/06 05:38:05;;;;;;;10.40;8.27;;;;;;;12.11;57.07;94052.06;4976447;28;20029;-79
2023/05/06 05:40:31;;;;;;;11.38;9.70;;;;;;;11.93;57.18;94057.41;4970039;28;20205;-79
2023/05/06 05:42:56;;;;;;;10.88;9.57;;;;;;;11.70;58.17;94045.34;4977189;28;20064;-79
2023/05/06 05:45:21;;;;;;;12.38;10.68;;;;;;;11.96;58.12;94046.13;4973353;28;20501;-81
2023/05/06 05:47:47;;;;;;;12.88;10.40;;;;;;;11.62;57.97;94035.47;4975088;28;20149;-82
2023/05/06 05:50:12;;;;;;;13.27;10.80;;;;;;;11.82;58.79;94053.50;4972956;28;20116;-79
2023/05/06 05:52:38;;;;;;;13.75;10.25;;;;;;;11.79;58.97;94040.00;4972722;28;20041;-81
2023/05/06 05:55:03;;;;;;;11.02;9.82;;;;;;;11.80;59.39;94044.25;4972920;28;20080;-79
2023/05/06 05:57:29;;;;;;;19.70;11.35;;;;;;;11.37;61.33;94041.56;4977040;28;20240;-78
2023/05/06 05:59:54;;;;;;;13.40;11.02;;;;;;;11.18;62.39;94050.63;4974993;28;20034;-82
2023/05/06 06:02:20;;;;;;;14.73;11.25;;;;;;;11.25;62.76;94068.78;4975964;28;20026;-79
2023/05/06 06:04:45;;;;;;;14.45;11.27;;;;;;;10.88;63.56;94067.44;4973806;28;20493;-80
2023/05/06 06:07:11;;;;;;;14.73;10.75;;;;;;;10.72;63.38;94045.00;4973605;28;20038;-80
2023/05/06 06:09:36;;;;;;;13.55;10.43;;;;;;;10.94;62.45;94058.22;4978230;28;20054;-80
2023/05/06 06:12:02;;;;;;;12.80;10.10;;;;;;;10.90;64.01;94078.56;4973164;28;20050;-79
2023/05/06 06:14:27;;;;;;;13.60;10.35;;;;;;;10.96;63.38;94081.84;4977377;28;20174;-79
2023/05/06 06:16:52;;;;;;;14.45;10.68;;;;;;;11.41;62.01;94074.44;4977861;28;20077;-80
2023/05/06 06:19:18;;;;;;;16.08;11.13;;;;;;;11.53;61.20;94069.34;4973777;28;20048;-81
2023/05/06 06:21:43;;;;;;;15.55;11.43;;;;;;;11.43;62.24;94075.72;4974459;28;20058;-80
2023/05/06 06:24:08;;;;;;;16.17;13.00;;;;;;;11.12;62.75;94049.19;4975166;28;20049;-80
2023/05/06 06:26:34;;;;;;;23.55;13.63;;;;;;;11.04;63.91;94065.94;4975391;28;20539;-81
2023/05/06 06:29:00;;;;;;;17.95;13.95;;;;;;;10.91;64.90;94066.81;4975869;28;20534;-79
2023/05/06 06:31:25;;;;;;;21.27;14.48;;;;;;;10.80;65.58;94073.53;4977430;28;20145;-79
2023/05/06 06:33:50;;;;;;;14.95;11.27;;;;;;;10.78;65.00;94027.81;4971209;28;20069;-79
2023/05/06 06:36:16;;;;;;;17.48;12.57;;;;;;;11.03;65.02;94075.00;4978099;28;20394;-77
2023/05/06 06:38:41;;;;;;;15.27;12.07;;;;;;;10.95;64.83;94051.03;4971345;28;20038;-79
2023/05/06 06:41:07;;;;;;;13.57;11.15;;;;;;;10.99;63.49;94050.09;4977607;28;20034;-78
2023/05/06 06:43:32;;;;;;;13.60;10.45;;;;;;;11.02;63.48;94064.66;4974794;28;20042;-79
2023/05/06 06:45:58;;;;;;;14.27;11.32;;;;;;;10.83;64.64;94072.09;4970773;28;20516;-78
2023/05/06 06:48:23;;;;;;;13.05;9.93;;;;;;;10.84;64.96;94081.66;4972816;28;20142;-79
2023/05/06 06:50:49;;;;;;;17.83;11.38;;;;;;;10.77;65.64;94079.44;4976141;28;20042;-78
2023/05/06 06:53:15;;;;;;;13.55;10.48;;;;;;;10.53;65.81;94069.16;4990154;28;20495;-79
2023/05/06 06:55:44;;;;;;;12.95;10.50;;;;;;;10.99;64.94;94081.25;4963864;28;20200;-78
2023/05/06 06:58:10;;;;;;;14.77;11.18;;;;;;;10.59;66.47;94080.47;4980044;28;20049;-80
2023/05/06 07:00:35;;;;;;;17.80;11.75;;;;;;;10.96;66.10;94093.28;4969056;28;20494;-79
2023/05/06 07:03:01;;;;;;;18.40;12.52;;;;;;;10.53;66.46;94090.44;4968729;28;20517;-79
2023/05/06 07:05:26;;;;;;;16.30;11.55;;;;;;;10.30;66.88;94091.53;4964429;28;20054;-79
2023/05/06 07:07:52;;;;;;;12.77;10.43;;;;;;;10.18;66.61;94085.97;4963652;28;20988;-79
2023/05/06 07:10:17;;;;;;;14.30;10.65;;;;;;;10.55;66.03;94063.56;4965306;28;20232;-77
2023/05/06 07:12:43;;;;;;;13.18;11.30;;;;;;;10.65;66.02;94092.53;4965813;28;20049;-79
2023/05/06 07:15:08;;;;;;;20.88;12.48;;;;;;;10.58;66.04;94081.53;4966426;28;20046;-79
2023/05/06 07:17:34;;;;;;;16.95;12.43;;;;;;;10.58;66.21;94086.88;4966344;28;20397;-78
2023/05/06 07:20:00;;;;;;;15.82;12.25;;;;;;;10.60;66.31;94079.38;4966759;28;20033;-78
2023/05/06 07:22:27;;;;;;;22.20;13.45;;;;;;;10.29;67.75;94088.09;4960670;28;20031;-78
2023/05/06 07:24:53;;;;;;;17.25;12.80;;;;;;;10.62;67.20;94098.47;4965215;28;20100;-76
2023/05/06 07:27:18;;;;;;;21.02;13.07;;;;;;;10.57;67.23;94066.69;4969678;28;20906;-78
2023/05/06 07:29:44;;;;;;;16.83;12.27;;;;;;;10.85;66.17;94081.38;4973664;28;20305;-77
2023/05/06 07:32:09;;;;;;;17.50;11.60;;;;;;;10.62;66.22;94080.63;4972910;28;20038;-80
2023/05/06 07:34:35;;;;;;;11.90;9.93;;;;;;;10.80;65.57;94105.44;4974502;28;21122;-78
2023/05/06 07:37:01;;;;;;;16.85;10.50;;;;;;;11.38;65.26;94104.38;4972551;28;20037;-81
2023/05/06 07:39:26;;;;;;;20.45;11.52;;;;;;;10.83;66.39;94082.75;4976322;28;20100;-79
2023/05/06 07:41:51;;;;;;;12.98;9.70;;;;;;;11.02;65.40;94076.09;4976589;28;20066;-79
2023/05/06 07:44:17;;;;;;;14.55;8.95;;;;;;;11.43;64.98;94085.59;4981064;28;20370;-78
2023/05/06 07:46:43;;;;;;;10.48;8.95;;;;;;;11.22;65.23;94093.38;4975502;28;20085;-78
2023/05/06 07:49:08;;;;;;;11.75;9.30;;;;;;;11.51;64.90;94082.16;4978157;28;20132;-78
2023/05/06 07:51:38;;;;;;;17.38;8.50;;;;;;;11.94;63.83;94085.63;4963788;28;20035;-78
2023/05/06 07:54:03;;;;;;;10.48;7.43;;;;;;;12.08;62.06;94095.34;4970541;28;20077;-79
2023/05/06 07:56:29;;;;;;;10.52;8.20;;;;;;;11.64;62.48;94080.47;4983808;28;20121;-78
2023/05/06 07:58:54;;;;;;;14.73;7.75;;;;;;;12.02;60.78;94087.53;4990952;28;20023;-79
2023/05/06 08:01:20;;;;;;;9.75;7.30;;;;;;;11.81;62.35;94072.47;4957077;28;20444;-78
2023/05/06 08:03:45;;;;;;;10.80;7.93;;;;;;;12.16;62.01;94073.22;4971061;28;20493;-78
2023/05/06 08:06:11;;;;;;;10.45;7.40;;;;;;;12.12;60.39;94070.41;4968899;28;20125;-77
2023/05/06 08:08:36;;;;;;;9.57;7.50;;;;;;;11.92;61.46;94084.38;4977182;28;20401;-77
2023/05/06 08:11:02;;;;;;;8.43;7.45;;;;;;;12.08;61.18;94085.44;4978685;28;20128;-76
2023/05/06 08:13:27;;;;;;;8.82;7.72;;;;;;;12.21;61.17;94086.41;4971256;28;20989;-81
2023/05/06 08:15:53;;;;;;;10.38;7.50;;;;;;;12.42;60.33;94092.63;4977062;28;20153;-76
2023/05/06 08:18:18;;;;;;;11.35;6.78;;;;;;;12.70;59.10;94091.19;4977742;28;20568;-78
2023/05/06 08:20:44;;;;;;;13.95;7.88;;;;;;;12.30;59.32;94082.63;4974509;28;20066;-79
2023/05/06 08:23:09;;;;;;;10.45;7.72;;;;;;;12.30;59.99;94085.28;4992161;28;20117;-80
2023/05/06 08:25:35;;;;;;;9.45;7.90;;;;;;;12.32;59.21;94090.31;4975528;28;20047;-80
2023/05/06 08:28:00;;;;;;;14.40;8.75;;;;;;;12.46;59.10;94091.69;4975538;28;20038;-81
2023/05/06 08:30:26;;;;;;;11.52;8.63;;;;;;;12.07;59.60;94083.91;4977308;28;20662;-78
2023/05/06 08:32:51;;;;;;;14.00;9.43;;;;;;;12.37;60.25;94103.47;4977902;28;20531;-82
2023/05/06 08:35:17;;;;;;;13.52;9.52;;;;;;;12.33;57.59;94091.84;4977703;28;20057;-80
2023/05/06 08:37:42;;;;;;;11.90;9.25;;;;;;;12.29;58.56;94074.91;4972764;28;20062;-80
2023/05/06 08:40:18;;;;;;;11.60;8.93;;;;;;;12.30;58.41;94093.28;4976872;28;20137;-80
2023/05/06 08:42:44;;;;;;;17.17;8.77;;;;;;;12.29;58.58;94109.59;4976074;28;20484;-81
2023/05/06 08:45:10;;;;;;;15.60;10.20;;;;;;;12.25;57.52;94063.31;4975969;28;20659;-79
2023/05/06 08:47:40;;;;;;;15.18;9.38;;;;;;;12.73;56.58;94097.75;4976106;28;20030;-79
2023/05/06 08:50:06;;;;;;;14.38;9.43;;;;;;;12.40;57.11;94089.50;4973318;28;20105;-79
2023/05/06 08:52:33;;;;;;;12.63;7.80;;;;;;;12.49;56.89;94100.94;4975645;28;20042;-80
2023/05/06 08:55:03;;;;;;;12.73;9.65;;;;;;;12.34;57.67;94082.75;4986611;28;20038;-80
2023/05/06 08:57:30;;;;;;;11.88;8.25;;;;;;;12.66;57.24;94092.13;4973359;28;20038;-82
2023/05/06 08:59:55;;;;;;;11.23;8.85;;;;;;;12.98;56.38;94106.78;4982256;28;20915;-80
2023/05/06 09:02:21;;;;;;;12.50;8.73;;;;;;;12.67;55.37;94105.13;4976081;28;20026;-83
2023/05/06 09:04:52;;;;;;;12.95;9.73;;;;;;;12.66;56.10;94090.25;4977089;28;20037;-82
2023/05/06 09:07:20;;;;;;;12.90;9.70;;;;;;;13.21;54.30;94078.69;4978616;28;20054;-80
2023/05/06 09:09:46;;;;;;;14.07;9.05;;;;;;;13.05;54.76;94091.03;4974488;28;20150;-79
2023/05/06 09:12:12;;;;;;;12.05;9.27;;;;;;;13.17;55.83;94061.75;4975762;28;20448;-81
2023/05/06 09:14:38;;;;;;;14.88;10.15;;;;;;;13.71;54.47;94079.50;4978084;28;20050;-80
2023/05/06 09:17:04;;;;;;;10.85;8.82;;;;;;;13.54;53.41;94060.91;4996210;28;20516;-80
2023/05/06 09:19:30;;;;;;;11.93;8.48;;;;;;;13.82;53.12;94076.44;4975955;28;20108;-80
2023/05/06 09:21:56;;;;;;;11.02;8.55;;;;;;;13.98;54.70;94064.06;4983043;28;20046;-80
2023/05/06 09:24:22;;;;;;;11.35;9.00;;;;;;;14.42;53.93;94073.25;4976059;28;20188;-80
2023/05/06 09:26:54;;;;;;;13.02;7.88;;;;;;;14.11;51.56;94068.34;4975535;28;20057;-80
2023/05/06 09:29:20;;;;;;;10.73;7.55;;;;;;;13.99;51.75;94053.00;4989341;28;20045;-78
2023/05/06 09:31:46;;;;;;;9.27;7.43;;;;;;;13.70;52.58;94069.13;4976261;28;20542;-78
2023/05/06 09:34:14;;;;;;;13.93;7.60;;;;;;;14.12;53.93;94072.59;4978829;28;20039;-80
2023/05/06 09:36:40;;;;;;;11.35;7.18;;;;;;;13.79;52.14;94072.53;4975106;28;20036;-79
2023/05/06 09:39:06;;;;;;;10.52;7.70;;;;;;;13.90;52.37;94046.19;4984144;28;20042;-79
2023/05/06 09:41:32;;;;;;;9.75;7.43;;;;;;;13.89;52.16;94057.97;4977629;28;20084;-79
2023/05/06 09:43:58;;;;;;;13.38;7.15;;;;;;;14.00;52.32;94045.78;4976310;28;20042;-80
2023/05/06 09:46:25;;;;;;;8.50;6.90;;;;;;;14.33;51.19;94065.28;4977133;28;20034;-78
2023/05/06 09:48:51;;;;;;;9.35;8.15;;;;;;;14.55;51.13;94045.41;4975586;28;20026;-79
2023/05/06 09:51:18;;;;;;;8.27;6.28;;;;;;;14.95;52.49;94037.56;4977328;28;20611;-80
2023/05/06 09:53:44;;;;;;;7.97;6.90;;;;;;;15.12;51.16;94037.31;4975506;28;20035;-83
2023/05/06 09:56:11;;;;;;;10.40;6.55;;;;;;;15.13;49.63;94028.16;4974488;28;20398;-79
2023/05/06 09:58:37;;;;;;;9.93;7.03;;;;;;;15.11;50.08;94046.47;4992433;28;20030;-79
2023/05/06 10:01:04;;;;;;;10.00;7.38;;;;;;;15.25;50.45;94049.59;4972546;28;20092;-79
2023/05/06 10:03:31;;;;;;;9.63;7.57;;;;;;;15.36;49.66;94015.84;4978886;28;20940;-80
2023/05/06 10:05:59;;;;;;;11.88;6.47;;;;;;;15.33;48.49;94042.53;4974816;28;20038;-80
2023/05/06 10:08:25;;;;;;;9.27;7.10;;;;;;;15.07;48.25;94029.50;4973106;28;20065;-80
2023/05/06 10:10:51;;;;;;;11.02;7.85;;;;;;;15.09;48.17;94042.56;4975950;28;20031;-82
2023/05/06 10:13:20;;;;;;;14.70;7.78;;;;;;;14.96;49.69;94031.84;4967905;28;20038;-79
2023/05/06 10:15:47;;;;;;;12.65;7.47;;;;;;;15.17;49.29;94042.44;4972887;28;20035;-81
2023/05/06 10:18:17;;;;;;;11.20;8.85;;;;;;;15.42;50.76;94025.22;4974663;28;20410;-81
2023/05/06 10:20:44;;;;;;;9.23;7.03;;;;;;;15.03;49.43;94029.41;4974386;28;20471;-81
2023/05/06 10:23:35;;;;;;;11.75;7.13;;;;;;;14.72;50.14;94023.00;4977185;28;20571;-79
2023/05/06 10:26:08;;;;;;;8.82;6.28;;;;;;;14.50;49.78;94008.91;4975076;28;20523;-79
2023/05/06 10:28:40;;;;;;;11.27;6.78;;;;;;;14.77;50.67;94034.28;4977563;28;20118;-79
2023/05/06 10:31:12;;;;;;;10.30;7.10;;;;;;;14.62;50.88;94029.59;4976173;28;20121;-80
2023/05/06 10:33:44;;;;;;;13.60;6.10;;;;;;;14.49;50.53;94010.03;4964029;28;20072;-81
2023/05/06 10:36:22;;;;;;;7.00;5.90;;;;;;;14.36;50.89;94019.16;4975254;28;20058;-79
2023/05/06 10:38:53;;;;;;;7.07;5.93;;;;;;;14.29;50.13;94037.63;4988097;28;20529;-79
2023/05/06 10:41:21;;;;;;;9.13;5.55;;;;;;;14.11;50.37;94028.22;4978446;28;20026;-79
2023/05/06 10:43:48;;;;;;;6.93;5.78;;;;;;;14.45;51.52;94024.41;4973217;28;20038;-80
2023/05/06 10:46:17;;;;;;;8.95;6.10;;;;;;;14.59;49.44;94008.84;4972402;28;20062;-80
2023/05/06 10:49:09;;;;;;;6.28;5.47;;;;;;;15.00;48.84;94016.69;4974462;28;20042;-79
2023/05/06 10:51:39;;;;;;;5.65;5.03;;;;;;;15.13;48.15;94014.78;4966035;28;20615;-79
2023/05/06 10:54:09;;;;;;;13.40;4.97;;;;;;;14.92;46.24;94032.84;4973269;28;20042;-78
2023/05/06 10:56:37;;;;;;;16.52;6.32;;;;;;;14.82;47.23;94020.69;4976601;28;20116;-78
2023/05/06 10:59:07;;;;;;;8.35;5.00;;;;;;;14.23;46.81;94032.84;4971188;28;20097;-80
2023/05/06 11:01:34;;;;;;;8.25;3.88;;;;;;;14.42;46.87;94031.19;4975495;28;20495;-80
2023/05/06 11:04:11;;;;;;;5.30;4.65;;;;;;;14.35;46.70;94009.56;4965657;28;20038;-79
2023/05/06 11:06:42;;;;;;;10.30;4.85;;;;;;;14.13;47.35;94028.69;4973827;28;20042;-79
2023/05/06 11:09:53;;;;;;;7.38;4.75;;;;;;;14.45;46.90;94025.19;4972644;28;20046;-78
2023/05/06 11:12:19;;;;;;;7.60;4.90;;;;;;;14.58;46.44;94024.13;4972249;28;20042;-80
2023/05/06 11:14:45;;;;;;;5.90;4.10;;;;;;;14.48;46.80;94013.81;4973540;28;20053;-78
2023/05/06 11:17:29;;;;;;;6.35;4.40;;;;;;;14.90;45.61;94025.16;4975551;28;20027;-80
2023/05/06 11:20:17;;;;;;;6.93;3.72;;;;;;;15.02;45.64;94022.47;4989513;28;20312;-81
2023/05/06 11:22:42;;;;;;;4.15;3.35;;;;;;;14.77;44.04;93998.69;4973060;28;20062;-82
2023/05/06 11:25:08;;;;;;;6.10;4.45;;;;;;;14.77;44.75;94020.13;4974506;28;20864;-83